EDT,Max TemperatureF,Mean TemperatureF,Min TemperatureF,Max Dew PointF,MeanDew PointF,Min DewpointF,Max Humidity, Mean Humidity, Min Humidity, Max Sea Level PressureIn, Mean Sea Level PressureIn, Min Sea Level PressureIn, Max VisibilityMiles, Mean VisibilityMiles, Min VisibilityMiles, Max Wind SpeedMPH, Mean Wind SpeedMPH, Max Gust SpeedMPH,PrecipitationIn, CloudCover, Events, WindDirDegrees
2012-8-1,86,74,62,64,60,53,96,66,35,29.97,29.94,29.89,10,10,5,13,4,16,0.00,0,,339
2012-8-2,90,78,66,68,64,61,90,66,42,29.91,29.88,29.84,10,10,10,15,4,18,T,1,,226
2012-8-3,95,81,66,68,65,59,96,63,31,29.94,29.90,29.88,10,9,3,13,3,18,0.00,0,,176
2012-8-4,92,81,70,73,69,65,94,73,48,29.95,29.90,29.81,10,9,6,22,7,30,0.01,2,Rain-Thunderstorm,185
2012-8-5,83,72,61,71,63,52,94,69,44,30.16,29.98,29.87,10,10,8,23,11,28,0.01,4,,278
2012-8-6,84,67,50,58,52,48,93,59,29,30.19,30.12,30.03,10,10,10,13,4,18,0.00,0,,244
2012-8-7,90,74,57,63,57,54,87,58,32,30.02,29.97,29.92,10,10,10,14,5,20,0.00,1,,231
2012-8-8,89,79,68,63,57,53,73,50,31,30.00,29.96,29.93,10,10,10,15,7,18,T,2,Rain,21
2012-8-9,73,68,62,65,62,58,100,89,59,29.96,29.89,29.83,10,7,1,16,5,21,1.13,7,Rain-Thunderstorm,38
2012-8-10,63,60,57,61,58,54,100,94,89,29.88,29.81,29.77,10,7,2,23,13,31,0.59,8,Rain,338
2012-8-11,78,69,59,57,56,55,93,70,46,29.99,29.89,29.84,10,10,10,22,11,29,T,7,Rain,312
2012-8-12,77,65,52,60,56,52,100,71,50,30.04,30.01,29.98,10,10,10,13,4,17,0.00,1,,289
2012-8-13,69,66,62,62,60,58,96,83,70,30.02,29.99,29.96,10,9,3,8,2,12,0.18,7,Rain,218
2012-8-14,80,71,61,61,60,57,100,82,50,29.97,29.94,29.90,10,7,1,12,4,18,0.02,6,Rain,350
2012-8-15,83,71,59,64,61,56,100,70,40,29.98,29.94,29.92,10,9,2,14,3,16,0.00,2,,213
2012-8-16,73,69,64,67,64,61,93,83,73,29.96,29.87,29.77,10,8,3,20,9,30,0.29,5,Rain-Thunderstorm,213
2012-8-17,74,64,53,61,55,49,97,72,46,30.03,29.95,29.87,10,10,10,18,8,23,0.00,1,,314
2012-8-18,75,61,46,53,47,40,100,65,29,30.06,30.02,29.96,10,10,2,10,2,13,0.00,0,,259
2012-8-19,77,65,52,56,51,44,93,62,31,29.99,29.96,29.92,10,10,10,15,3,20,0.00,1,,335
2012-8-20,78,65,52,56,52,49,100,68,36,30.00,29.97,29.94,10,10,6,12,2,15,0.00,2,,332
2012-8-21,79,66,52,55,51,44,93,63,32,30.12,30.07,30.01,10,10,10,14,5,16,0.00,1,,341
2012-8-22,81,66,51,58,52,45,100,65,30,30.17,30.12,30.08,10,9,0,12,3,15,0.00,0,Fog,211
2012-8-23,87,71,55,61,56,53,93,64,34,30.15,30.11,30.07,10,10,10,13,4,18,0.00,0,,180
2012-8-24,89,76,62,62,58,55,84,59,34,30.11,30.07,30.03,10,10,10,13,5,16,0.00,0,,175
2012-8-25,91,77,62,64,61,58,84,59,34,30.10,30.07,30.04,10,10,8,14,4,18,0.00,0,,177
2012-8-26,91,77,63,70,65,60,93,67,41,30.11,30.06,30.01,10,8,2,18,6,26,0.49,3,Rain,205
2012-8-27,85,75,64,71,66,54,100,70,39,30.06,30.02,29.99,10,7,2,18,7,23,0.02,5,Rain,331
2012-8-28,81,69,57,59,57,55,90,68,45,30.15,30.09,30.04,10,10,10,15,4,18,0.00,1,,351
2012-8-29,83,70,56,61,53,44,100,63,26,30.13,30.09,30.04,10,10,10,7,1,15,0.00,1,Fog,28
2012-8-30,86,70,53,60,57,53,100,69,37,30.10,30.05,29.99,10,10,6,17,7,31,0.00,0,,191
2012-8-31,93,78,62,71,64,56,84,63,41,30.07,30.03,30.01,10,10,10,22,8,28,0.00,0,,241